Time;durP1;ratioP1;P1;durP2;ratioP2;P2;SDS_P1;SDS_P2;PMS_P1;PMS_P2;Temp;Humidity;BMP_temperature;BMP_pressure;BME280_temperature;BME280_humidity;BME280_pressure;Samples;Min_cycle;Max_cycle;Signal;HPM_P1;HPM_P2
2023/11/22 00:02:17;;;;;;;12.88;5.18;;;2.80;99.90;;;;;;4937711;29;20056;-90
2023/11/22 00:04:44;;;;;;;9.00;5.22;;;2.80;99.90;;;;;;4920189;29;20169;-91
2023/11/22 00:07:11;;;;;;;10.48;5.25;;;2.70;99.90;;;;;;4919295;29;20084;-91
2023/11/22 00:09:37;;;;;;;9.43;5.70;;;2.80;99.90;;;;;;4919108;29;20036;-91
2023/11/22 00:12:04;;;;;;;10.40;6.00;;;2.70;99.90;;;;;;4930881;29;20047;-92
2023/11/22 00:14:31;;;;;;;10.85;5.28;;;2.70;99.90;;;;;;4923469;29;20044;-92
2023/11/22 00:17:00;;;;;;;8.70;4.90;;;3.30;99.90;;;;;;4937891;29;20040;-91
2023/11/22 00:19:27;;;;;;;10.25;5.18;;;3.10;99.90;;;;;;4919832;29;20128;-92
2023/11/22 00:21:54;;;;;;;8.38;5.10;;;2.60;99.90;;;;;;4919046;29;20079;-91
2023/11/22 00:24:21;;;;;;;12.13;5.40;;;2.50;99.90;;;;;;4931305;29;20058;-90
2023/11/22 00:26:47;;;;;;;10.82;5.40;;;2.50;99.90;;;;;;4918420;29;20125;-90
2023/11/22 00:29:14;;;;;;;9.35;4.40;;;2.50;99.90;;;;;;4937740;29;20494;-91
2023/11/22 00:31:41;;;;;;;11.85;5.10;;;2.40;99.90;;;;;;4924901;29;20052;-91
2023/11/22 00:34:07;;;;;;;17.13;5.50;;;2.60;99.90;;;;;;4937788;29;20077;-91
2023/11/22 00:36:34;;;;;;;10.18;5.88;;;2.40;99.90;;;;;;4923124;29;20079;-90
2023/11/22 00:39:00;;;;;;;11.30;6.25;;;2.80;99.90;;;;;;4918519;29;20123;-91
2023/11/22 00:41:31;;;;;;;10.80;5.40;;;2.40;99.90;;;;;;4918512;29;20838;-89
2023/11/22 00:43:58;;;;;;;9.95;5.35;;;2.40;99.90;;;;;;4927210;29;20048;-90
2023/11/22 00:46:24;;;;;;;9.43;5.13;;;2.30;99.90;;;;;;4940354;29;20083;-90
2023/11/22 00:48:51;;;;;;;10.25;5.65;;;2.30;99.90;;;;;;4937424;29;20040;-90
2023/11/22 00:51:19;;;;;;;10.77;5.22;;;2.30;99.90;;;;;;4921547;29;20040;-91
2023/11/22 00:53:46;;;;;;;11.13;5.25;;;2.30;99.90;;;;;;4928178;29;20040;-91
2023/11/22 00:56:12;;;;;;;10.07;5.70;;;2.20;99.90;;;;;;4920851;29;20044;-91
2023/11/22 00:58:39;;;;;;;9.50;5.32;;;2.20;99.90;;;;;;4933631;29;20037;-91
2023/11/22 01:01:06;;;;;;;9.02;5.13;;;2.20;99.90;;;;;;4933334;29;20131;-90
2023/11/22 01:03:32;;;;;;;9.23;5.18;;;2.20;99.90;;;;;;4920110;29;20048;-91
2023/11/22 01:05:59;;;;;;;10.00;5.55;;;2.20;99.90;;;;;;4917891;29;20052;-90
2023/11/22 01:08:26;;;;;;;10.95;5.07;;;2.20;99.90;;;;;;4926918;29;20485;-91
2023/11/22 01:10:54;;;;;;;10.10;5.45;;;2.10;99.90;;;;;;4917738;29;20112;-91
2023/11/22 01:13:22;;;;;;;10.57;5.22;;;2.10;99.90;;;;;;4932967;29;20052;-90
2023/11/22 01:15:48;;;;;;;9.63;4.97;;;2.10;99.90;;;;;;4917389;29;20047;-91
2023/11/22 01:18:15;;;;;;;10.52;5.20;;;3.10;99.90;;;;;;4917654;29;20048;-91
2023/11/22 01:20:41;;;;;;;9.55;4.90;;;2.00;99.90;;;;;;4936914;29;20072;-91
2023/11/22 01:23:08;;;;;;;10.48;5.15;;;2.10;99.90;;;;;;4952087;29;20111;-90
2023/11/22 01:25:35;;;;;;;10.55;4.72;;;1.90;99.90;;;;;;4933451;29;20044;-88
2023/11/22 01:28:01;;;;;;;12.70;5.13;;;2.20;99.90;;;;;;4917492;29;20394;-91
2023/11/22 01:30:28;;;;;;;10.77;5.65;;;1.90;99.90;;;;;;4920922;29;20036;-90
2023/11/22 01:32:55;;;;;;;11.32;5.50;;;1.80;99.90;;;;;;4926695;29;20088;-91
2023/11/22 01:35:21;;;;;;;8.85;5.30;;;1.80;99.90;;;;;;4933312;29;20079;-90
2023/11/22 01:37:49;;;;;;;11.93;4.90;;;1.80;99.90;;;;;;4927829;29;20047;-91
2023/11/22 01:40:16;;;;;;;9.02;5.05;;;1.80;99.90;;;;;;4936462;29;20059;-90
2023/11/22 01:42:43;;;;;;;9.98;5.03;;;1.80;99.90;;;;;;4924457;29;20379;-91
2023/11/22 01:45:10;;;;;;;10.27;5.15;;;1.70;99.90;;;;;;4937927;29;20047;-88
2023/11/22 01:47:37;;;;;;;10.60;4.93;;;1.70;99.90;;;;;;4944336;29;20500;-90
2023/11/22 01:50:06;;;;;;;9.35;5.35;;;1.70;99.90;;;;;;4923272;29;20054;-91
2023/11/22 01:52:33;;;;;;;10.43;5.10;;;1.70;99.90;;;;;;4922796;29;20462;-90
2023/11/22 01:55:04;;;;;;;9.70;5.10;;;1.60;99.90;;;;;;4935358;29;20047;-89
2023/11/22 01:57:33;;;;;;;9.00;4.82;;;1.60;99.90;;;;;;4921323;29;20498;-90
2023/11/22 02:00:04;;;;;;;13.93;5.25;;;1.70;99.90;;;;;;4916249;29;20041;-90
2023/11/22 02:02:31;;;;;;;10.23;5.25;;;1.60;99.90;;;;;;4916122;29;20106;-90
2023/11/22 02:04:58;;;;;;;10.68;5.22;;;2.40;99.90;;;;;;4916468;29;20040;-90
2023/11/22 02:07:27;;;;;;;9.38;4.85;;;1.70;99.90;;;;;;4917656;29;20570;-89
2023/11/22 02:09:53;;;;;;;9.82;4.80;;;1.80;99.90;;;;;;4927102;29;20052;-90
2023/11/22 02:12:20;;;;;;;10.18;5.05;;;1.80;99.90;;;;;;4932098;29;20051;-91
2023/11/22 02:14:47;;;;;;;10.93;5.20;;;1.80;99.90;;;;;;4918355;29;20036;-90
2023/11/22 02:17:15;;;;;;;9.00;4.78;;;1.80;99.90;;;;;;4931449;29;20048;-89
2023/11/22 02:19:42;;;;;;;10.60;5.40;;;1.80;99.90;;;;;;4920239;29;20043;-90
2023/11/22 02:22:09;;;;;;;8.80;4.80;;;1.70;99.90;;;;;;4929354;29;20044;-91
2023/11/22 02:24:35;;;;;;;9.73;4.88;;;1.70;99.90;;;;;;4942512;29;20120;-90
2023/11/22 02:27:03;;;;;;;9.05;4.97;;;1.70;99.90;;;;;;4916072;29;20757;-89
2023/11/22 02:29:30;;;;;;;10.02;4.97;;;1.60;99.90;;;;;;4931878;29;20048;-90
2023/11/22 02:31:56;;;;;;;13.65;5.70;;;1.60;99.90;;;;;;4934025;29;20052;-90
2023/11/22 02:34:23;;;;;;;9.52;5.30;;;1.50;99.90;;;;;;4950631;29;20505;-91
2023/11/22 02:36:50;;;;;;;11.88;5.35;;;1.50;99.90;;;;;;4942806;29;20132;-90
2023/11/22 02:39:17;;;;;;;8.40;4.65;;;2.20;99.90;;;;;;4916173;29;20151;-90
2023/11/22 02:41:44;;;;;;;8.95;5.00;;;2.20;99.90;;;;;;4919381;29;20043;-90
2023/11/22 02:44:15;;;;;;;10.82;4.95;;;1.40;99.90;;;;;;4924900;29;20065;-90
2023/11/22 02:46:42;;;;;;;12.05;5.45;;;1.40;99.90;;;;;;4921197;29;20051;-90
2023/11/22 02:49:09;;;;;;;11.75;5.15;;;1.40;99.90;;;;;;4935128;29;20048;-90
2023/11/22 02:51:36;;;;;;;9.77;5.43;;;1.30;99.90;;;;;;4916993;29;20125;-90
2023/11/22 02:54:04;;;;;;;11.85;5.70;;;1.30;99.90;;;;;;4927361;29;20087;-89
2023/11/22 02:56:31;;;;;;;8.68;4.90;;;1.30;99.90;;;;;;4910928;29;20485;-89
2023/11/22 02:58:58;;;;;;;11.05;5.60;;;1.20;99.90;;;;;;4909112;29;20076;-90
2023/11/22 03:01:26;;;;;;;12.00;4.72;;;1.20;99.90;;;;;;4928190;29;20045;-89
2023/11/22 03:03:52;;;;;;;9.35;4.85;;;1.20;99.90;;;;;;4935020;29;20036;-90
2023/11/22 03:06:19;;;;;;;11.93;5.72;;;1.70;99.90;;;;;;4934407;29;20417;-90
2023/11/22 03:08:45;;;;;;;9.48;5.20;;;1.20;99.90;;;;;;4943195;29;20060;-90
2023/11/22 03:11:12;;;;;;;10.95;5.10;;;1.20;99.90;;;;;;4923416;29;20072;-89
2023/11/22 03:13:39;;;;;;;11.02;4.75;;;1.20;99.90;;;;;;4921992;29;20045;-89
2023/11/22 03:16:06;;;;;;;12.27;5.20;;;1.10;99.90;;;;;;4923437;29;20063;-89
2023/11/22 03:18:32;;;;;;;11.88;5.95;;;1.10;99.90;;;;;;4918083;29;20052;-91
2023/11/22 03:21:01;;;;;;;9.98;5.35;;;1.10;99.90;;;;;;4920342;29;20115;-89
2023/11/22 03:23:27;;;;;;;10.40;5.40;;;1.10;99.90;;;;;;4924551;29;20049;-90
2023/11/22 03:25:54;;;;;;;7.95;4.60;;;1.10;99.90;;;;;;4917842;29;20044;-90
2023/11/22 03:28:22;;;;;;;8.93;4.90;;;1.10;99.90;;;;;;4918283;29;20045;-90
2023/11/22 03:30:49;;;;;;;9.85;4.80;;;1.10;99.90;;;;;;4926399;29;20040;-89
2023/11/22 03:33:16;;;;;;;9.60;4.93;;;1.10;99.90;;;;;;4906631;29;20646;-85
2023/11/22 03:35:43;;;;;;;11.45;5.05;;;1.10;99.90;;;;;;4918144;29;20048;-88
2023/11/22 03:38:10;;;;;;;11.25;4.63;;;1.20;99.90;;;;;;4922634;29;20152;-89
2023/11/22 03:40:36;;;;;;;11.85;5.47;;;1.20;99.90;;;;;;4937861;29;20493;-89
2023/11/22 03:43:03;;;;;;;11.20;5.35;;;1.20;99.90;;;;;;4916984;29;20482;-90
2023/11/22 03:45:29;;;;;;;12.25;5.60;;;1.20;99.90;;;;;;4911136;29;20049;-89
2023/11/22 03:47:56;;;;;;;10.00;4.95;;;1.20;99.90;;;;;;4937515;29;20044;-90
2023/11/22 03:50:23;;;;;;;10.40;5.32;;;1.20;99.90;;;;;;4937727;29;20043;-88
2023/11/22 03:52:49;;;;;;;10.13;5.32;;;1.20;99.90;;;;;;4919796;29;20564;-89
2023/11/22 03:55:16;;;;;;;10.40;5.25;;;1.20;99.90;;;;;;4919177;29;20052;-90
2023/11/22 03:57:43;;;;;;;11.25;4.97;;;1.20;99.90;;;;;;4918895;29;20544;-89
2023/11/22 04:00:11;;;;;;;10.80;5.35;;;1.30;99.90;;;;;;4918518;29;20037;-88
2023/11/22 04:02:39;;;;;;;11.02;5.93;;;1.30;99.90;;;;;;4930550;29;20498;-90
2023/11/22 04:05:07;;;;;;;10.65;5.88;;;1.30;99.90;;;;;;4926826;29;20044;-89
2023/11/22 04:07:33;;;;;;;12.15;5.80;;;1.30;99.90;;;;;;4937292;29;20179;-90
2023/11/22 04:10:00;;;;;;;12.43;5.68;;;2.20;99.90;;;;;;4928402;29;20128;-90
2023/11/22 04:12:27;;;;;;;10.25;5.28;;;2.10;99.90;;;;;;4918696;29;20131;-89
2023/11/22 04:14:53;;;;;;;11.02;5.55;;;1.30;99.90;;;;;;4920481;29;20047;-89
2023/11/22 04:17:20;;;;;;;11.27;5.68;;;1.20;99.90;;;;;;4924433;29;20080;-89
2023/11/22 04:19:46;;;;;;;9.82;5.47;;;1.30;99.90;;;;;;4930308;29;20036;-89
2023/11/22 04:22:13;;;;;;;12.52;5.65;;;1.20;99.90;;;;;;4918187;29;20037;-88
2023/11/22 04:24:40;;;;;;;10.88;5.68;;;1.20;99.90;;;;;;4934032;29;20037;-88
2023/11/22 04:27:07;;;;;;;9.90;5.32;;;1.20;99.90;;;;;;4917911;29;20066;-89
2023/11/22 04:29:33;;;;;;;10.35;5.25;;;1.10;99.90;;;;;;4942607;29;20083;-89
2023/11/22 04:32:00;;;;;;;10.95;5.25;;;1.10;99.90;;;;;;4921660;29;20045;-90
2023/11/22 04:34:27;;;;;;;11.35;5.43;;;1.10;99.90;;;;;;4927148;29;20044;-90
2023/11/22 04:36:54;;;;;;;10.25;5.45;;;1.10;99.90;;;;;;4921208;29;20750;-89
2023/11/22 04:39:21;;;;;;;9.93;5.50;;;1.00;99.90;;;;;;4918388;29;20051;-89
2023/11/22 04:41:47;;;;;;;12.93;5.80;;;1.00;99.90;;;;;;4934175;29;20028;-89
2023/11/22 04:44:14;;;;;;;12.30;6.13;;;1.00;99.90;;;;;;4926686;29;20045;-89
2023/11/22 04:46:40;;;;;;;12.20;5.20;;;1.00;99.90;;;;;;4916961;29;20052;-89
2023/11/22 04:49:07;;;;;;;11.85;6.22;;;1.00;99.90;;;;;;4918189;29;20116;-89
2023/11/22 04:51:34;;;;;;;13.35;6.10;;;1.00;99.90;;;;;;4929967;29;20127;-89
2023/11/22 04:54:01;;;;;;;10.98;5.70;;;1.00;99.90;;;;;;4917803;29;20044;-89
2023/11/22 04:56:27;;;;;;;10.88;6.18;;;1.20;99.90;;;;;;4917493;29;20048;-89
2023/11/22 04:58:54;;;;;;;13.48;6.38;;;1.00;99.90;;;;;;4917739;29;20045;-88
2023/11/22 05:01:20;;;;;;;12.20;5.88;;;1.20;99.90;;;;;;4935639;29;20048;-89
2023/11/22 05:03:47;;;;;;;12.23;5.55;;;1.00;99.90;;;;;;4923865;29;20040;-89
2023/11/22 05:06:14;;;;;;;11.48;5.65;;;0.90;99.90;;;;;;4933584;29;20033;-89
2023/11/22 05:08:40;;;;;;;12.82;6.07;;;1.00;99.90;;;;;;4932900;29;20052;-89
2023/11/22 05:11:08;;;;;;;11.88;5.80;;;1.00;99.90;;;;;;4922476;29;20052;-89
2023/11/22 05:13:34;;;;;;;12.77;6.07;;;1.00;99.90;;;;;;4940308;29;20044;-89
2023/11/22 05:16:01;;;;;;;10.35;5.40;;;1.90;99.90;;;;;;4938182;29;20044;-89
2023/11/22 05:18:28;;;;;;;13.18;6.22;;;1.00;99.90;;;;;;4926018;29;20052;-89
2023/11/22 05:20:54;;;;;;;15.75;7.07;;;1.00;99.90;;;;;;4945352;29;20073;-89
2023/11/22 05:23:21;;;;;;;12.93;6.53;;;1.00;99.90;;;;;;4927590;29;20084;-89
2023/11/22 05:25:48;;;;;;;13.57;6.28;;;1.00;99.90;;;;;;4931314;29;20119;-88
2023/11/22 05:28:15;;;;;;;13.57;6.75;;;1.10;99.90;;;;;;4917130;29;20072;-89
2023/11/22 05:30:42;;;;;;;14.43;6.75;;;1.00;99.90;;;;;;4922137;29;20044;-89
2023/11/22 05:33:08;;;;;;;13.07;6.65;;;1.00;99.90;;;;;;4939990;29;20048;-89
2023/11/22 05:35:35;;;;;;;14.68;6.85;;;1.00;99.90;;;;;;4922889;29;20048;-88
2023/11/22 05:38:02;;;;;;;14.23;6.78;;;1.10;99.90;;;;;;4951395;29;20044;-88
2023/11/22 05:40:28;;;;;;;14.77;6.80;;;1.10;99.90;;;;;;4945063;29;20044;-89
2023/11/22 05:42:55;;;;;;;15.55;7.05;;;1.00;99.90;;;;;;4916847;29;20512;-89
2023/11/22 05:45:21;;;;;;;13.75;5.93;;;1.00;99.90;;;;;;4916640;29;20084;-89
2023/11/22 05:47:48;;;;;;;13.27;6.65;;;1.00;99.90;;;;;;4916772;29;20052;-88
2023/11/22 05:50:15;;;;;;;13.05;6.53;;;1.10;99.90;;;;;;4916985;29;20502;-89
2023/11/22 05:52:41;;;;;;;13.65;7.05;;;1.00;99.90;;;;;;4945636;29;20147;-89
2023/11/22 05:55:08;;;;;;;14.20;7.43;;;1.00;99.90;;;;;;4927236;29;20056;-89
2023/11/22 05:57:36;;;;;;;13.20;6.70;;;1.00;99.90;;;;;;4927206;29;20506;-88
2023/11/22 06:00:02;;;;;;;15.77;6.88;;;1.00;99.90;;;;;;4916079;29;20075;-89
2023/11/22 06:02:29;;;;;;;14.48;7.07;;;1.00;99.90;;;;;;4906536;29;20092;-88
2023/11/22 06:04:56;;;;;;;14.02;7.00;;;1.70;99.90;;;;;;4919071;29;20041;-89
2023/11/22 06:07:22;;;;;;;16.90;7.97;;;0.90;99.90;;;;;;4931973;29;20545;-89
2023/11/22 06:09:49;;;;;;;19.63;7.80;;;0.90;99.90;;;;;;4916098;29;20095;-89
2023/11/22 06:12:16;;;;;;;16.60;7.82;;;0.90;99.90;;;;;;4930073;29;20044;-88
2023/11/22 06:14:42;;;;;;;16.73;7.57;;;0.90;99.90;;;;;;4929051;29;20044;-89
2023/11/22 06:17:09;;;;;;;17.65;8.68;;;0.90;99.90;;;;;;4916380;29;20040;-89
2023/11/22 06:19:36;;;;;;;17.00;7.50;;;0.90;99.90;;;;;;4928446;29;20168;-88
2023/11/22 06:22:02;;;;;;;19.13;8.45;;;0.90;99.90;;;;;;4916198;29;20051;-89
2023/11/22 06:24:29;;;;;;;17.20;8.40;;;1.00;99.90;;;;;;4922607;29;20032;-89
2023/11/22 06:26:56;;;;;;;17.45;8.15;;;1.30;99.90;;;;;;4921633;29;20045;-89
2023/11/22 06:29:22;;;;;;;18.15;7.47;;;1.00;99.90;;;;;;4915894;29;20079;-88
2023/11/22 06:31:49;;;;;;;14.20;7.15;;;1.00;99.90;;;;;;4929866;29;20557;-89
2023/11/22 06:34:15;;;;;;;16.05;7.40;;;1.00;99.90;;;;;;4927557;29;20123;-89
2023/11/22 06:36:43;;;;;;;14.52;7.43;;;1.00;99.90;;;;;;4917356;29;20037;-88
2023/11/22 06:39:09;;;;;;;18.77;8.90;;;1.00;99.90;;;;;;4927064;29;20072;-88
2023/11/22 06:41:36;;;;;;;15.20;7.85;;;1.00;99.90;;;;;;4934107;29;20045;-88
2023/11/22 06:44:03;;;;;;;17.70;8.40;;;2.10;99.90;;;;;;4941641;29;20458;-89
2023/11/22 06:46:30;;;;;;;17.50;7.72;;;1.10;99.90;;;;;;4931502;29;20040;-88
2023/11/22 06:48:57;;;;;;;17.10;8.35;;;1.10;99.90;;;;;;4941241;29;20051;-88
2023/11/22 06:51:23;;;;;;;18.48;8.15;;;1.10;99.90;;;;;;4928230;29;20045;-87
2023/11/22 06:53:52;;;;;;;16.80;8.38;;;1.10;99.90;;;;;;4915554;29;20124;-88
2023/11/22 06:56:18;;;;;;;15.70;7.78;;;1.10;99.90;;;;;;4919584;29;20036;-88
2023/11/22 06:58:45;;;;;;;15.55;8.15;;;1.30;99.90;;;;;;4934910;29;20055;-88
2023/11/22 07:01:11;;;;;;;18.20;8.65;;;1.10;99.90;;;;;;4913841;29;20083;-89
2023/11/22 07:03:38;;;;;;;21.00;9.07;;;1.10;99.90;;;;;;4912250;29;20056;-89
2023/11/22 07:06:05;;;;;;;18.27;9.48;;;1.00;99.90;;;;;;4931160;29;20072;-87
2023/11/22 07:08:32;;;;;;;18.85;9.77;;;1.10;99.90;;;;;;4915092;29;20111;-89
2023/11/22 07:10:58;;;;;;;20.80;9.85;;;1.10;99.90;;;;;;4932642;29;20127;-88
2023/11/22 07:13:26;;;;;;;19.20;9.02;;;1.10;99.90;;;;;;4935120;29;20068;-88
2023/11/22 07:15:54;;;;;;;21.48;9.93;;;1.10;99.90;;;;;;4932493;29;20626;-88
2023/11/22 07:18:24;;;;;;;25.23;10.38;;;1.10;99.90;;;;;;4934018;29;20049;-88
2023/11/22 07:20:50;;;;;;;19.25;10.70;;;1.10;99.90;;;;;;4917729;29;20036;-90
2023/11/22 07:23:17;;;;;;;22.73;11.15;;;1.10;99.90;;;;;;4953179;29;20043;-89
2023/11/22 07:25:43;;;;;;;29.85;11.82;;;1.20;99.90;;;;;;4935817;29;20032;-88
2023/11/22 07:28:10;;;;;;;30.35;14.25;;;1.20;99.90;;;;;;4940791;29;20112;-89
2023/11/22 07:30:39;;;;;;;28.30;12.23;;;1.30;99.90;;;;;;4933077;29;20044;-88
2023/11/22 07:33:06;;;;;;;25.30;12.35;;;1.40;99.90;;;;;;4935372;29;20063;-90
2023/11/22 07:35:33;;;;;;;25.50;12.32;;;1.30;99.90;;;;;;4925937;29;20051;-90
2023/11/22 07:37:59;;;;;;;27.20;11.80;;;1.40;99.90;;;;;;4920157;29;20068;-91
2023/11/22 07:40:26;;;;;;;23.85;12.00;;;1.40;99.90;;;;;;4923060;29;20036;-90
2023/11/22 07:42:54;;;;;;;25.85;12.05;;;1.50;99.90;;;;;;4930435;29;20044;-91
2023/11/22 07:45:22;;;;;;;22.63;11.60;;;1.60;99.90;;;;;;4941027;29;20067;-91
2023/11/22 07:47:48;;;;;;;23.13;11.57;;;1.60;99.90;;;;;;4958321;29;20059;-89
2023/11/22 07:50:15;;;;;;;23.80;11.45;;;1.60;99.90;;;;;;4929477;29;20531;-91
2023/11/22 07:52:42;;;;;;;28.20;12.50;;;1.70;99.90;;;;;;4926522;29;20192;-91
2023/11/22 07:55:09;;;;;;;22.80;11.80;;;1.70;99.90;;;;;;4944634;29;20056;-91
2023/11/22 07:57:38;;;;;;;26.15;11.38;;;1.70;99.90;;;;;;4936295;29;20052;-92
2023/11/22 08:00:07;;;;;;;24.10;11.50;;;1.80;99.90;;;;;;4919560;29;20052;-90
2023/11/22 08:02:34;;;;;;;25.77;11.77;;;1.80;99.90;;;;;;4906671;29;20045;-91
2023/11/22 08:05:03;;;;;;;25.35;11.35;;;1.80;99.90;;;;;;4919333;29;20432;-91
2023/11/22 08:07:30;;;;;;;23.95;11.05;;;2.20;99.90;;;;;;4920598;29;20041;-90
2023/11/22 08:09:56;;;;;;;22.10;10.60;;;1.90;99.90;;;;;;4936966;29;20704;-91
2023/11/22 08:12:23;;;;;;;20.73;11.32;;;2.00;99.90;;;;;;4923128;29;20041;-92
2023/11/22 08:14:51;;;;;;;25.10;10.93;;;2.00;99.90;;;;;;4928359;29;20127;-91
2023/11/22 08:17:18;;;;;;;28.83;11.02;;;2.00;99.90;;;;;;4937191;29;20051;-91
2023/11/22 08:19:47;;;;;;;23.10;10.18;;;2.10;99.90;;;;;;4934574;29;20039;-90
2023/11/22 08:22:14;;;;;;;24.75;10.45;;;2.10;99.90;;;;;;4952428;29;20048;-90
2023/11/22 08:24:41;;;;;;;20.65;10.25;;;2.20;99.90;;;;;;4936947;29;20036;-90
2023/11/22 08:27:07;;;;;;;25.35;13.02;;;2.20;99.90;;;;;;4940809;29;20104;-89
2023/11/22 08:29:34;;;;;;;23.88;11.88;;;2.40;99.90;;;;;;4934841;29;20486;-89
2023/11/22 08:32:02;;;;;;;26.02;12.45;;;2.30;99.90;;;;;;4931027;29;20481;-92
2023/11/22 08:34:28;;;;;;;24.42;13.15;;;2.30;99.90;;;;;;4932068;29;20071;-90
2023/11/22 08:36:55;;;;;;;27.35;11.90;;;2.30;99.90;;;;;;4918328;29;20104;-93
2023/11/22 08:39:21;;;;;;;21.83;10.65;;;2.30;99.90;;;;;;4924638;29;20107;-92
2023/11/22 08:41:50;;;;;;;23.95;10.52;;;2.40;99.90;;;;;;4912667;29;20061;-93
2023/11/22 08:44:17;;;;;;;24.48;11.75;;;2.40;99.90;;;;;;4936943;29;20036;-93
2023/11/22 08:46:43;;;;;;;22.90;11.65;;;2.40;99.90;;;;;;4923336;29;20512;-93
2023/11/22 08:49:11;;;;;;;23.73;11.88;;;2.50;99.90;;;;;;4918436;29;20048;-93
2023/11/22 08:51:37;;;;;;;20.52;10.32;;;2.80;99.90;;;;;;4927844;29;20040;-92
2023/11/22 08:54:04;;;;;;;21.27;10.48;;;2.50;99.90;;;;;;4918067;29;20438;-93
2023/11/22 08:56:31;;;;;;;22.42;11.18;;;2.50;99.90;;;;;;4930246;29;20084;-94
2023/11/22 08:58:58;;;;;;;23.02;11.75;;;2.50;99.90;;;;;;4917821;29;20042;-94
2023/11/22 09:01:25;;;;;;;21.95;10.82;;;2.50;99.90;;;;;;4918167;29;20057;-93
2023/11/22 09:03:52;;;;;;;23.67;11.00;;;2.60;99.90;;;;;;4918313;29;20060;-93
2023/11/22 09:06:18;;;;;;;20.70;10.88;;;2.60;99.90;;;;;;4922725;29;20494;-92
2023/11/22 09:08:46;;;;;;;23.25;11.75;;;2.60;99.90;;;;;;4936423;29;20059;-94
2023/11/22 09:11:13;;;;;;;22.60;10.60;;;2.60;99.90;;;;;;4920659;29;20052;-92
2023/11/22 09:13:39;;;;;;;20.52;10.60;;;2.70;99.90;;;;;;4946126;29;20048;-92
2023/11/22 09:16:08;;;;;;;18.52;10.52;;;2.70;99.90;;;;;;4922121;29;20409;-93
2023/11/22 09:18:37;;;;;;;22.27;10.43;;;2.70;99.90;;;;;;4926026;29;20088;-94
2023/11/22 09:21:04;;;;;;;20.52;10.43;;;2.70;99.90;;;;;;4923293;29;20402;-93
2023/11/22 09:23:31;;;;;;;19.98;10.43;;;2.70;99.90;;;;;;4936176;29;20051;-94
2023/11/22 09:26:02;;;;;;;21.83;10.50;;;2.70;99.90;;;;;;4918199;29;20056;-94
2023/11/22 09:28:29;;;;;;;26.08;10.82;;;2.80;99.90;;;;;;4945728;29;20055;-92
2023/11/22 09:31:01;;;;;;;19.60;9.90;;;2.80;99.90;;;;;;4940726;29;20513;-93
2023/11/22 09:33:28;;;;;;;22.58;10.25;;;2.80;99.90;;;;;;4951656;29;20058;-93
2023/11/22 09:35:55;;;;;;;23.10;10.52;;;3.30;99.90;;;;;;4936031;29;20044;-93
2023/11/22 09:38:22;;;;;;;19.70;11.18;;;2.80;99.90;;;;;;4923842;29;20048;-94
2023/11/22 09:40:49;;;;;;;20.52;10.07;;;2.90;99.90;;;;;;4927444;29;20104;-94
2023/11/22 09:43:18;;;;;;;19.08;10.35;;;3.00;99.90;;;;;;4920355;29;20076;-92
2023/11/22 09:45:45;;;;;;;17.20;8.75;;;3.00;99.90;;;;;;4943180;29;20044;-94
2023/11/22 09:48:15;;;;;;;18.30;9.07;;;3.00;99.90;;;;;;4934995;29;20131;-94
2023/11/22 09:50:56;;;;;;;18.02;9.23;;;3.00;99.90;;;;;;4917198;29;20040;-93
2023/11/22 09:53:33;;;;;;;18.25;9.35;;;3.10;99.90;;;;;;4900189;29;20079;-94
2023/11/22 09:56:06;;;;;;;16.58;8.85;;;3.10;99.90;;;;;;4913553;29;20052;-94
2023/11/22 09:58:34;;;;;;;19.35;9.05;;;3.10;99.90;;;;;;4917491;29;20044;-93
2023/11/22 10:01:01;;;;;;;15.80;8.52;;;3.30;99.90;;;;;;4933102;29;20449;-92
2023/11/22 10:03:28;;;;;;;17.48;8.93;;;3.20;99.90;;;;;;4921246;29;20036;-93
2023/11/22 10:05:59;;;;;;;15.57;7.82;;;3.40;99.90;;;;;;4915949;29;20115;-93
2023/11/22 10:08:32;;;;;;;13.77;7.72;;;3.30;99.90;;;;;;4926170;29;20047;-94
2023/11/22 10:10:59;;;;;;;15.25;8.05;;;3.30;99.90;;;;;;4940342;29;20504;-94
2023/11/22 10:13:27;;;;;;;18.45;8.82;;;3.30;99.90;;;;;;4927463;29;20058;-94
2023/11/22 10:15:54;;;;;;;16.15;8.15;;;3.40;99.90;;;;;;4919296;29;20096;-93
2023/11/22 10:18:21;;;;;;;15.45;7.88;;;3.70;99.90;;;;;;4917432;29;20077;-94
2023/11/22 10:20:49;;;;;;;17.73;7.55;;;3.50;99.90;;;;;;4918678;29;20036;-94
2023/11/22 10:23:17;;;;;;;15.10;7.90;;;3.40;99.90;;;;;;4923644;29;20089;-94
2023/11/22 10:25:47;;;;;;;18.10;8.90;;;4.30;99.90;;;;;;4922494;29;20084;-93
2023/11/22 10:28:14;;;;;;;15.85;7.90;;;3.50;99.90;;;;;;4927703;29;20076;-93
2023/11/22 10:30:41;;;;;;;18.15;8.23;;;3.60;99.90;;;;;;4930951;29;20489;-95
2023/11/22 10:33:13;;;;;;;13.82;7.63;;;3.60;99.90;;;;;;4916808;29;20048;-91
2023/11/22 10:35:48;;;;;;;16.08;7.40;;;3.60;99.90;;;;;;4919016;29;20489;-93
2023/11/22 10:38:18;;;;;;;16.17;7.72;;;4.30;99.90;;;;;;4938550;29;20045;-92
2023/11/22 10:40:46;;;;;;;15.75;7.70;;;3.70;99.90;;;;;;4927668;29;20123;-93
2023/11/22 10:43:12;;;;;;;15.57;7.45;;;4.20;99.90;;;;;;4943123;29;20045;-95
2023/11/22 10:45:41;;;;;;;17.92;8.27;;;4.00;99.90;;;;;;4918860;29;20500;-95
2023/11/22 10:48:09;;;;;;;13.00;7.22;;;3.80;99.90;;;;;;4926555;29;20045;-93
2023/11/22 10:50:37;;;;;;;15.05;7.13;;;3.80;99.90;;;;;;4924172;29;20044;-93
2023/11/22 10:53:12;;;;;;;13.77;6.53;;;3.90;99.90;;;;;;4931875;29;20495;-93
2023/11/22 10:55:42;;;;;;;;;;;3.90;99.90;;;;;;4940361;29;20048;-93
2023/11/22 10:58:09;;;;;;;13.18;6.97;;;4.50;99.90;;;;;;4919075;29;19927;-93
2023/11/22 11:00:41;;;;;;;11.45;6.57;;;3.90;99.90;;;;;;4947758;29;20060;-93
2023/11/22 11:03:10;;;;;;;12.43;6.82;;;3.80;99.90;;;;;;4923761;29;20041;-94
2023/11/22 11:05:41;;;;;;;12.65;6.00;;;3.80;99.90;;;;;;4948737;29;20485;-93
2023/11/22 11:08:11;;;;;;;10.65;5.97;;;4.30;99.90;;;;;;4916404;29;20047;-92
2023/11/22 11:10:47;;;;;;;10.70;6.05;;;4.20;99.90;;;;;;4926440;29;20568;-93
2023/11/22 11:13:13;;;;;;;;;;;3.80;99.90;;;;;;4951652;29;20040;-93
2023/11/22 11:15:45;;;;;;;14.68;6.45;;;3.80;99.90;;;;;;4919450;29;20265;-93
2023/11/22 11:18:17;;;;;;;13.00;6.50;;;3.80;99.90;;;;;;4926653;29;20097;-93
2023/11/22 11:20:56;;;;;;;11.48;6.35;;;3.90;99.90;;;;;;4928388;29;20119;-95
2023/11/22 11:23:27;;;;;;;13.13;6.10;;;4.40;99.90;;;;;;4913164;29;20037;-93
2023/11/22 11:25:55;;;;;;;11.70;6.03;;;4.00;99.90;;;;;;4920811;29;20051;-94
2023/11/22 11:28:26;;;;;;;10.32;5.93;;;4.30;99.90;;;;;;4919215;29;20044;-93
2023/11/22 11:30:56;;;;;;;9.68;5.15;;;4.50;99.90;;;;;;4934908;29;20056;-94
2023/11/22 11:33:32;;;;;;;10.75;5.90;;;4.20;99.90;;;;;;4924333;29;20143;-93
2023/11/22 11:36:00;;;;;;;10.45;5.72;;;4.40;99.90;;;;;;4921252;29;20051;-93
2023/11/22 11:38:33;;;;;;;11.25;4.72;;;4.60;99.90;;;;;;4933726;29;20476;-93
2023/11/22 11:41:10;;;;;;;11.20;5.68;;;4.60;99.90;;;;;;4921590;29;20045;-94
2023/11/22 11:43:45;;;;;;;10.43;5.00;;;5.00;99.90;;;;;;4932223;29;20048;-94
2023/11/22 11:46:13;;;;;;;10.60;4.75;;;4.80;99.90;;;;;;4916444;29;20770;-93
2023/11/22 11:48:51;;;;;;;9.30;4.93;;;4.90;99.90;;;;;;4931537;29;20569;-93
2023/11/22 11:51:19;;;;;;;9.93;4.20;;;5.50;99.90;;;;;;4929879;29;20052;-94
2023/11/22 11:53:46;;;;;;;9.85;5.00;;;4.80;99.90;;;;;;4928239;29;20121;-92
2023/11/22 11:56:13;;;;;;;9.45;4.18;;;4.90;99.90;;;;;;4945492;29;20044;-93
2023/11/22 11:58:44;;;;;;;8.60;4.65;;;5.00;99.90;;;;;;4919554;29;20123;-94
2023/11/22 12:01:20;;;;;;;9.20;4.50;;;5.00;99.90;;;;;;4920254;29;20056;-94
2023/11/22 12:03:47;;;;;;;11.25;4.28;;;6.00;99.90;;;;;;4928802;29;20110;-94
2023/11/22 12:06:18;;;;;;;9.88;4.50;;;5.10;99.90;;;;;;4919830;29;20105;-94
2023/11/22 12:08:47;;;;;;;8.77;4.75;;;5.70;99.90;;;;;;4935665;29;20488;-94
2023/11/22 12:11:17;;;;;;;8.50;4.25;;;5.20;99.90;;;;;;4917327;29;20052;-94
2023/11/22 12:13:48;;;;;;;7.18;3.70;;;6.00;99.90;;;;;;4914414;29;20052;-95
2023/11/22 12:16:18;;;;;;;7.18;4.03;;;5.20;99.90;;;;;;4938498;29;20044;-95
2023/11/22 12:18:47;;;;;;;7.72;4.10;;;5.20;99.90;;;;;;4926094;29;20045;-94
2023/11/22 12:21:15;;;;;;;7.50;3.90;;;5.20;99.90;;;;;;4921849;29;20048;-94
2023/11/22 12:23:42;;;;;;;7.90;3.92;;;5.60;99.90;;;;;;4925023;29;20040;-95
2023/11/22 12:26:20;;;;;;;6.72;3.60;;;5.10;99.90;;;;;;4934556;29;20049;-91
2023/11/22 12:28:48;;;;;;;7.97;3.80;;;5.00;99.90;;;;;;4929032;29;20036;-94
2023/11/22 12:31:15;;;;;;;9.02;3.95;;;5.00;99.90;;;;;;4940861;29;20040;-92
2023/11/22 12:33:44;;;;;;;8.65;4.07;;;5.60;99.90;;;;;;4919955;29;20092;-94
2023/11/22 12:36:16;;;;;;;9.32;4.88;;;5.80;99.90;;;;;;4924038;29;20100;-93
2023/11/22 12:38:43;;;;;;;8.32;4.25;;;5.00;99.90;;;;;;4929920;29;20048;-94
2023/11/22 12:41:09;;;;;;;6.72;4.10;;;5.00;99.90;;;;;;4926912;29;20127;-93
2023/11/22 12:43:38;;;;;;;7.55;4.10;;;5.70;99.90;;;;;;4911015;29;20052;-94
2023/11/22 12:46:06;;;;;;;7.65;4.40;;;4.90;99.90;;;;;;4933448;29;20070;-93
2023/11/22 12:48:33;;;;;;;7.35;4.03;;;4.90;99.90;;;;;;4937829;29;20072;-94
2023/11/22 12:51:00;;;;;;;7.78;3.95;;;5.30;99.90;;;;;;4933313;29;20045;-94